createdAt,value
2019-04-29T00:01:55.372Z,12.30
2019-04-29T00:04:21.900Z,12.30
2019-04-29T00:06:50.087Z,12.30
2019-04-29T00:09:17.624Z,12.40
2019-04-29T00:11:44.306Z,12.40
2019-04-29T00:14:10.929Z,12.30
2019-04-29T00:16:44.476Z,12.20
2019-04-29T00:19:12.813Z,12.20
2019-04-29T00:21:40.093Z,12.10
2019-04-29T00:24:06.539Z,12.00
2019-04-29T00:26:34.055Z,12.10
2019-04-29T00:29:00.548Z,12.00
2019-04-29T00:31:27.181Z,12.00
2019-04-29T00:33:53.741Z,12.00
2019-04-29T00:36:22.014Z,12.00
2019-04-29T00:39:00.941Z,11.90
2019-04-29T00:41:32.117Z,11.80
2019-04-29T00:44:03.589Z,11.90
2019-04-29T00:46:30.122Z,11.90
2019-04-29T00:48:56.481Z,11.80
2019-04-29T00:51:22.837Z,11.80
2019-04-29T00:53:51.142Z,11.80
2019-04-29T00:56:17.427Z,11.70
2019-04-29T00:58:43.864Z,11.70
2019-04-29T01:01:12.225Z,11.60
2019-04-29T01:03:41.178Z,11.60
2019-04-29T01:06:08.464Z,11.60
2019-04-29T01:08:34.875Z,11.70
2019-04-29T01:11:01.255Z,11.60
2019-04-29T01:13:27.598Z,11.60
2019-04-29T01:15:54.074Z,11.70
2019-04-29T01:18:20.720Z,11.60
2019-04-29T01:20:47.171Z,11.60
2019-04-29T01:23:13.604Z,11.60
2019-04-29T01:25:41.930Z,11.60
2019-04-29T01:28:23.898Z,11.60
2019-04-29T01:31:00.370Z,11.60
2019-04-29T01:33:26.808Z,11.70
2019-04-29T01:36:10.530Z,11.80
2019-04-29T01:38:37.012Z,11.70
2019-04-29T01:41:08.345Z,11.70
2019-04-29T01:43:54.958Z,11.70
2019-04-29T01:46:21.373Z,11.70
2019-04-29T01:48:53.581Z,11.70
2019-04-29T01:51:20.006Z,11.80
2019-04-29T01:53:46.387Z,11.70
2019-04-29T01:56:14.812Z,11.80
2019-04-29T01:58:41.217Z,11.80
2019-04-29T02:01:07.915Z,11.90
2019-04-29T02:03:35.472Z,11.80
2019-04-29T02:06:03.412Z,11.70
2019-04-29T02:08:29.803Z,11.80
2019-04-29T02:10:56.792Z,11.80
2019-04-29T02:13:23.853Z,11.90
2019-04-29T02:15:50.365Z,11.90
2019-04-29T02:18:18.107Z,11.90
2019-04-29T02:20:44.551Z,11.90
2019-04-29T02:23:19.500Z,11.80
2019-04-29T02:25:50.231Z,11.80
2019-04-29T02:28:16.691Z,11.90
2019-04-29T02:30:45.696Z,11.80
2019-04-29T02:33:12.345Z,11.90
2019-04-29T02:35:39.151Z,11.90
2019-04-29T02:38:07.745Z,11.90
2019-04-29T02:40:36.342Z,12.00
2019-04-29T02:43:08.347Z,12.00
2019-04-29T02:45:35.298Z,12.00
2019-04-29T02:48:01.852Z,12.00
2019-04-29T02:50:28.290Z,12.00
2019-04-29T02:52:54.774Z,12.00
2019-04-29T02:55:23.357Z,11.90
2019-04-29T02:57:51.729Z,11.90
2019-04-29T03:00:26.048Z,11.90
2019-04-29T03:02:58.286Z,11.90
2019-04-29T03:05:26.680Z,11.80
2019-04-29T03:07:53.359Z,11.90
2019-04-29T03:10:20.060Z,11.90
2019-04-29T03:12:46.481Z,11.80
2019-04-29T03:15:20.220Z,11.80
2019-04-29T03:17:46.779Z,11.70
2019-04-29T03:20:19.082Z,11.80
2019-04-29T03:22:46.965Z,11.80
2019-04-29T03:25:13.561Z,11.80
2019-04-29T03:27:40.047Z,11.70
2019-04-29T03:30:07.486Z,11.70
2019-04-29T03:32:34.018Z,11.80
2019-04-29T03:35:00.625Z,11.80
2019-04-29T03:37:27.143Z,11.70
2019-04-29T03:39:53.562Z,11.80
2019-04-29T03:42:23.150Z,11.90
2019-04-29T03:44:49.683Z,11.80
2019-04-29T03:47:18.638Z,11.70
2019-04-29T03:49:44.515Z,11.80
2019-04-29T03:52:11.005Z,11.80
2019-04-29T03:54:37.545Z,11.80
2019-04-29T03:57:06.101Z,11.60
2019-04-29T03:59:32.582Z,11.50
2019-04-29T04:02:04.915Z,11.50
2019-04-29T04:04:50.113Z,11.50
2019-04-29T04:07:35.463Z,11.50
2019-04-29T04:10:03.419Z,11.50
2019-04-29T04:12:30.169Z,11.40
2019-04-29T04:14:56.837Z,11.40
2019-04-29T04:17:31.326Z,11.40
2019-04-29T04:19:58.800Z,11.40
2019-04-29T04:22:28.542Z,11.30
2019-04-29T04:24:55.006Z,11.30
2019-04-29T04:27:21.476Z,11.30
2019-04-29T04:29:48.095Z,11.30
2019-04-29T04:32:15.622Z,11.30
2019-04-29T04:34:42.191Z,11.50
2019-04-29T04:37:08.740Z,11.50
2019-04-29T04:39:37.174Z,11.40
2019-04-29T04:42:05.021Z,11.40
2019-04-29T04:44:47.113Z,11.40
2019-04-29T04:47:13.961Z,11.40
2019-04-29T04:49:40.421Z,11.40
2019-04-29T04:52:07.061Z,11.30
2019-04-29T04:54:33.729Z,11.30
2019-04-29T04:57:00.275Z,11.30
2019-04-29T04:59:26.717Z,11.40
2019-04-29T05:01:53.349Z,11.30
2019-04-29T05:04:19.743Z,11.30
2019-04-29T05:06:46.159Z,11.40
2019-04-29T05:09:12.892Z,11.40
2019-04-29T05:11:39.654Z,11.40
2019-04-29T05:14:06.084Z,11.40
2019-04-29T05:16:32.751Z,11.50
2019-04-29T05:18:59.295Z,11.50
2019-04-29T05:21:25.835Z,11.50
2019-04-29T05:23:54.208Z,11.40
2019-04-29T05:26:20.631Z,11.50
2019-04-29T05:28:47.153Z,11.50
2019-04-29T05:31:13.590Z,11.60
2019-04-29T05:33:40.159Z,11.60
2019-04-29T05:36:25.504Z,11.60
2019-04-29T05:38:54.080Z,11.60
2019-04-29T05:41:20.676Z,11.60
2019-04-29T05:43:52.737Z,11.50
2019-04-29T05:46:29.921Z,11.60
2019-04-29T05:48:56.531Z,11.60
2019-04-29T05:51:28.537Z,11.50
2019-04-29T05:53:57.232Z,11.40
2019-04-29T05:56:24.858Z,11.40
2019-04-29T05:58:52.787Z,11.50
2019-04-29T06:01:22.041Z,11.50
2019-04-29T06:03:48.595Z,11.50
2019-04-29T06:06:15.002Z,11.40
2019-04-29T06:08:41.516Z,11.40
2019-04-29T06:11:08.059Z,11.50
2019-04-29T06:13:34.629Z,11.50
2019-04-29T06:16:01.123Z,11.60
2019-04-29T06:18:27.785Z,11.70
2019-04-29T06:21:07.942Z,11.60
2019-04-29T06:23:26.139Z,11.60
2019-04-29T06:25:53.429Z,11.60
2019-04-29T06:28:21.582Z,11.50
2019-04-29T06:30:50.140Z,11.50
2019-04-29T06:33:16.653Z,11.70
2019-04-29T06:35:43.374Z,11.70
2019-04-29T06:38:12.465Z,11.70
2019-04-29T06:40:38.917Z,11.60
2019-04-29T06:43:05.468Z,11.60
2019-04-29T06:45:32.838Z,11.50
2019-04-29T06:47:59.381Z,11.50
2019-04-29T06:50:25.808Z,11.50
2019-04-29T06:52:52.445Z,11.50
2019-04-29T06:55:20.257Z,11.50
2019-04-29T06:57:46.759Z,11.40
2019-04-29T07:00:17.561Z,11.40
2019-04-29T07:02:49.915Z,11.40
2019-04-29T07:05:14.782Z,11.40
2019-04-29T07:07:41.234Z,11.30
2019-04-29T07:10:07.733Z,11.30
2019-04-29T07:12:34.208Z,11.30
2019-04-29T07:15:00.774Z,11.30
2019-04-29T07:17:27.315Z,11.30
2019-04-29T07:19:57.509Z,11.40
2019-04-29T07:22:25.866Z,11.30
2019-04-29T07:24:50.848Z,11.40
2019-04-29T07:27:17.309Z,11.50
2019-04-29T07:29:43.873Z,11.60
2019-04-29T07:32:10.734Z,11.60
2019-04-29T07:34:39.593Z,11.60
2019-04-29T07:37:06.259Z,11.60
2019-04-29T07:39:33.866Z,11.70
2019-04-29T07:42:03.191Z,11.70
2019-04-29T07:44:43.379Z,11.80
2019-04-29T07:47:02.419Z,11.80
2019-04-29T07:49:29.619Z,11.90
2019-04-29T07:51:56.180Z,12.00
2019-04-29T07:54:22.706Z,12.00
2019-04-29T07:56:49.391Z,12.10
2019-04-29T07:59:15.973Z,12.20
2019-04-29T08:01:42.577Z,12.10
2019-04-29T08:04:11.132Z,12.10
2019-04-29T08:06:38.332Z,12.10
2019-04-29T08:09:08.104Z,12.00
2019-04-29T08:11:35.631Z,12.10
2019-04-29T08:14:02.290Z,12.10
2019-04-29T08:16:28.885Z,12.10
2019-04-29T08:18:55.425Z,12.10
2019-04-29T08:21:21.835Z,12.10
2019-04-29T08:23:48.432Z,12.10
2019-04-29T08:26:14.951Z,12.20
2019-04-29T08:28:41.402Z,12.20
2019-04-29T08:31:08.920Z,12.20
2019-04-29T08:33:35.590Z,12.30
2019-04-29T08:36:02.187Z,12.40
2019-04-29T08:38:28.873Z,12.50
2019-04-29T08:40:55.653Z,12.60
2019-04-29T08:43:33.020Z,12.70
2019-04-29T08:46:13.481Z,12.70
2019-04-29T08:48:41.808Z,12.70
2019-04-29T08:51:08.198Z,12.60
2019-04-29T08:53:34.662Z,12.40
2019-04-29T08:56:01.309Z,12.40
2019-04-29T08:58:27.755Z,12.30
2019-04-29T09:00:55.771Z,12.30
2019-04-29T09:03:23.414Z,12.30
2019-04-29T09:06:05.169Z,12.20
2019-04-29T09:08:20.734Z,12.40
2019-04-29T09:10:47.263Z,12.30
2019-04-29T09:13:13.979Z,12.30
2019-04-29T09:15:40.680Z,12.30
2019-04-29T09:18:10.871Z,12.20
2019-04-29T09:20:37.128Z,12.20
2019-04-29T09:23:11.757Z,12.10
2019-04-29T09:25:40.361Z,12.10
2019-04-29T09:28:08.843Z,12.10
2019-04-29T09:30:38.765Z,12.20
2019-04-29T09:33:08.775Z,12.30
2019-04-29T09:35:38.683Z,12.30
2019-04-29T09:38:02.642Z,12.30
2019-04-29T09:40:31.293Z,12.30
2019-04-29T09:43:16.509Z,12.30
2019-04-29T09:45:58.741Z,12.30
2019-04-29T09:48:26.913Z,12.30
2019-04-29T09:50:53.582Z,12.30
2019-04-29T09:53:20.099Z,12.30
2019-04-29T09:55:46.857Z,12.30
2019-04-29T09:58:13.322Z,12.40
2019-04-29T10:00:42.055Z,12.40
2019-04-29T10:03:10.684Z,12.40
2019-04-29T10:05:48.405Z,12.50
2019-04-29T10:08:18.377Z,12.50
2019-04-29T10:10:45.162Z,12.60
2019-04-29T10:13:11.854Z,12.50
2019-04-29T10:15:40.479Z,12.60
2019-04-29T10:18:09.168Z,12.60
2019-04-29T10:20:37.802Z,12.70
2019-04-29T10:23:04.699Z,12.60
2019-04-29T10:25:31.497Z,12.60
2019-04-29T10:27:58.414Z,12.60
2019-04-29T10:30:31.229Z,12.50
2019-04-29T10:32:55.313Z,12.60
2019-04-29T10:35:22.012Z,12.50
2019-04-29T10:37:48.943Z,12.60
2019-04-29T10:40:30.175Z,12.60
2019-04-29T10:43:16.882Z,12.70
2019-04-29T10:46:02.130Z,12.70
2019-04-29T10:48:31.781Z,12.80
2019-04-29T10:50:58.191Z,12.80
2019-04-29T10:53:24.609Z,12.80
2019-04-29T10:55:51.237Z,12.80
2019-04-29T10:58:21.993Z,12.80
2019-04-29T11:00:52.817Z,12.70
2019-04-29T11:03:20.727Z,12.70
2019-04-29T11:05:59.916Z,12.80
2019-04-29T11:08:22.470Z,12.70
2019-04-29T11:10:49.203Z,12.70
2019-04-29T11:13:15.745Z,12.70
2019-04-29T11:15:44.923Z,12.70
2019-04-29T11:18:11.107Z,12.70
2019-04-29T11:20:37.695Z,12.70
2019-04-29T11:23:18.284Z,12.70
2019-04-29T11:26:04.408Z,12.70
2019-04-29T11:28:34.828Z,12.70
2019-04-29T11:31:01.445Z,12.60
2019-04-29T11:33:29.897Z,12.60
2019-04-29T11:36:03.990Z,12.60
2019-04-29T11:38:33.359Z,12.60
2019-04-29T11:40:58.398Z,12.50
2019-04-29T11:43:25.620Z,12.50
2019-04-29T11:45:52.451Z,12.50
2019-04-29T11:48:19.052Z,12.50
2019-04-29T11:50:54.528Z,12.40
2019-04-29T11:53:18.705Z,12.40
2019-04-29T11:55:46.467Z,12.40
2019-04-29T11:58:17.841Z,12.40
2019-04-29T12:00:59.075Z,12.40
2019-04-29T12:03:37.519Z,12.40
2019-04-29T12:06:06.099Z,12.40
2019-04-29T12:08:33.967Z,12.40
2019-04-29T12:11:07.138Z,12.50
2019-04-29T12:13:33.577Z,12.40
2019-04-29T12:16:04.674Z,12.40
2019-04-29T12:18:38.058Z,12.40
2019-04-29T12:21:05.995Z,12.40
2019-04-29T12:23:32.616Z,12.40
2019-04-29T12:26:03.113Z,12.50
2019-04-29T12:28:28.563Z,12.50
2019-04-29T12:31:12.127Z,12.60
2019-04-29T12:33:40.615Z,12.60
2019-04-29T12:36:11.836Z,12.60
2019-04-29T12:38:49.054Z,12.60
2019-04-29T12:41:31.570Z,12.70
2019-04-29T12:44:01.368Z,12.60
2019-04-29T12:46:32.501Z,12.60
2019-04-29T12:49:03.623Z,12.60
2019-04-29T12:51:28.609Z,12.60
2019-04-29T12:53:55.171Z,12.70
2019-04-29T12:56:26.235Z,12.70
2019-04-29T12:58:55.241Z,12.70
2019-04-29T13:01:23.244Z,12.70
2019-04-29T13:04:14.468Z,12.70
2019-04-29T13:06:49.559Z,12.60
2019-04-29T13:09:24.259Z,12.60
2019-04-29T13:11:58.100Z,12.60
2019-04-29T13:14:21.235Z,12.60
2019-04-29T13:16:55.777Z,12.60
2019-04-29T13:19:25.191Z,12.60
2019-04-29T13:21:51.455Z,12.70
2019-04-29T13:24:24.263Z,12.70
2019-04-29T13:26:46.549Z,12.70
2019-04-29T13:29:26.259Z,12.80
2019-04-29T13:31:41.820Z,12.80
2019-04-29T13:34:23.730Z,12.90
2019-04-29T13:36:38.669Z,12.90
2019-04-29T13:39:05.372Z,12.80
2019-04-29T13:41:33.764Z,12.80
2019-04-29T13:44:05.792Z,12.80
2019-04-29T13:46:32.356Z,12.80
2019-04-29T13:49:13.436Z,12.80
2019-04-29T13:51:40.488Z,12.70
2019-04-29T13:54:07.898Z,12.70
2019-04-29T13:56:54.564Z,12.70
2019-04-29T13:59:10.416Z,12.60
2019-04-29T14:01:57.857Z,12.70
2019-04-29T14:04:09.304Z,12.60
2019-04-29T14:06:37.767Z,12.60
2019-04-29T14:09:06.750Z,12.50
2019-04-29T14:11:34.187Z,12.60
2019-04-29T14:14:01.422Z,12.70
2019-04-29T14:16:29.989Z,12.70
2019-04-29T14:18:56.448Z,12.80
2019-04-29T14:21:25.729Z,12.80
2019-04-29T14:23:52.536Z,12.80
2019-04-29T14:26:21.453Z,12.80
2019-04-29T14:28:47.900Z,13.00
2019-04-29T14:31:14.501Z,13.00
2019-04-29T14:33:49.132Z,13.10
2019-04-29T14:36:19.862Z,13.10
2019-04-29T14:38:44.499Z,13.10
2019-04-29T14:41:14.318Z,13.20
2019-04-29T14:43:50.657Z,13.20
2019-04-29T14:46:24.812Z,13.30
2019-04-29T14:48:53.171Z,13.30
2019-04-29T14:51:19.576Z,13.40
2019-04-29T14:53:56.329Z,13.40
2019-04-29T14:56:16.065Z,13.40
2019-04-29T14:58:42.703Z,13.30
2019-04-29T15:01:30.111Z,13.30
2019-04-29T15:04:17.399Z,13.20
2019-04-29T15:06:35.696Z,13.30
2019-04-29T15:09:03.837Z,13.20
2019-04-29T15:11:41.097Z,13.20
2019-04-29T15:14:25.791Z,13.30
2019-04-29T15:17:03.419Z,13.30
2019-04-29T15:19:48.609Z,13.30
2019-04-29T15:22:13.749Z,13.30
2019-04-29T15:24:40.300Z,13.30
2019-04-29T15:27:07.820Z,13.40
2019-04-29T15:29:35.746Z,13.30
2019-04-29T15:32:02.243Z,13.30
2019-04-29T15:34:28.899Z,13.20
2019-04-29T15:36:56.328Z,13.30
2019-04-29T15:39:25.130Z,13.20
2019-04-29T15:41:54.207Z,13.20
2019-04-29T15:44:22.195Z,13.20
2019-04-29T15:46:47.397Z,13.20
2019-04-29T15:49:13.824Z,13.10
2019-04-29T15:51:44.091Z,13.20
2019-04-29T15:54:14.364Z,13.20
2019-04-29T15:56:38.566Z,13.10
2019-04-29T15:59:08.815Z,13.10
2019-04-29T16:01:34.522Z,13.10
2019-04-29T16:04:02.946Z,13.10
2019-04-29T16:06:33.896Z,13.10
2019-04-29T16:09:18.199Z,13.00
2019-04-29T16:11:58.243Z,13.10
2019-04-29T16:14:24.718Z,13.00
2019-04-29T16:16:51.135Z,13.00
2019-04-29T16:19:17.783Z,13.00
2019-04-29T16:21:44.282Z,13.00
2019-04-29T16:24:25.821Z,12.90
2019-04-29T16:26:38.958Z,12.80
2019-04-29T16:29:12.437Z,12.80
2019-04-29T16:31:33.699Z,12.70
2019-04-29T16:34:00.337Z,12.70
2019-04-29T16:36:26.777Z,12.70
2019-04-29T16:38:53.502Z,12.70
2019-04-29T16:41:28.052Z,12.70
2019-04-29T16:43:55.722Z,12.70
2019-04-29T16:46:35.591Z,12.70
2019-04-29T16:48:56.014Z,12.70
2019-04-29T16:51:22.464Z,12.70
2019-04-29T16:53:49.956Z,12.70
2019-04-29T16:56:16.648Z,12.70
2019-04-29T16:58:46.222Z,12.60
2019-04-29T17:01:12.846Z,12.70
2019-04-29T17:03:39.595Z,12.70
2019-04-29T17:06:06.054Z,12.80
2019-04-29T17:08:37.714Z,12.70
2019-04-29T17:11:06.021Z,12.70
2019-04-29T17:13:34.492Z,12.60
2019-04-29T17:16:02.151Z,12.60
2019-04-29T17:18:28.856Z,12.70
2019-04-29T17:21:04.726Z,12.70
2019-04-29T17:23:24.764Z,12.70
2019-04-29T17:25:51.350Z,12.70
2019-04-29T17:28:25.457Z,12.70
2019-04-29T17:31:12.413Z,12.70
2019-04-29T17:33:50.083Z,12.60
2019-04-29T17:36:22.985Z,12.70
2019-04-29T17:38:44.493Z,12.80
2019-04-29T17:41:10.783Z,12.80
2019-04-29T17:43:45.573Z,12.80
2019-04-29T17:46:23.200Z,12.80
2019-04-29T17:49:06.138Z,12.80
2019-04-29T17:51:34.022Z,12.90
2019-04-29T17:54:02.559Z,12.90
2019-04-29T17:56:36.672Z,12.90
2019-04-29T17:59:08.105Z,12.90
2019-04-29T18:01:44.686Z,12.80
2019-04-29T18:04:20.120Z,12.80
2019-04-29T18:06:49.165Z,12.90
2019-04-29T18:09:17.505Z,12.90
2019-04-29T18:11:51.613Z,12.70
2019-04-29T18:14:15.406Z,12.70
2019-04-29T18:16:43.767Z,12.70
2019-04-29T18:19:18.711Z,12.60
2019-04-29T18:21:56.147Z,12.60
2019-04-29T18:24:29.360Z,12.60
2019-04-29T18:26:56.581Z,12.50
2019-04-29T18:29:23.202Z,12.50
2019-04-29T18:31:49.820Z,12.40
2019-04-29T18:34:16.606Z,12.40
2019-04-29T18:36:45.684Z,12.30
2019-04-29T18:39:20.059Z,12.40
2019-04-29T18:41:45.669Z,12.20
2019-04-29T18:44:19.204Z,12.30
2019-04-29T18:46:45.950Z,12.30
2019-04-29T18:49:08.601Z,12.30
2019-04-29T18:51:34.992Z,12.30
2019-04-29T18:54:01.488Z,12.30
2019-04-29T18:56:27.960Z,12.40
2019-04-29T18:58:55.562Z,12.20
2019-04-29T19:01:23.941Z,12.10
2019-04-29T19:03:55.714Z,12.10
2019-04-29T19:06:22.507Z,12.10
2019-04-29T19:08:48.982Z,12.10
2019-04-29T19:11:15.725Z,12.10
2019-04-29T19:13:43.591Z,12.20
2019-04-29T19:16:13.354Z,12.20
2019-04-29T19:18:39.800Z,12.30
2019-04-29T19:21:06.888Z,12.30
2019-04-29T19:23:33.455Z,12.10
2019-04-29T19:25:59.984Z,12.00
2019-04-29T19:28:30.959Z,11.90
2019-04-29T19:31:03.358Z,11.90
2019-04-29T19:33:30.725Z,11.90
2019-04-29T19:35:55.583Z,11.90
2019-04-29T19:38:25.326Z,11.90
2019-04-29T19:40:52.037Z,11.90
2019-04-29T19:43:19.013Z,12.00
2019-04-29T19:45:48.947Z,12.10
2019-04-29T19:48:15.979Z,12.10
2019-04-29T19:50:45.123Z,12.00
2019-04-29T19:53:11.507Z,11.90
2019-04-29T19:55:42.216Z,11.90
2019-04-29T19:58:07.518Z,11.90
2019-04-29T20:00:38.350Z,12.00
2019-04-29T20:03:17.331Z,12.00
2019-04-29T20:05:38.973Z,12.00
2019-04-29T20:08:02.659Z,12.00
2019-04-29T20:10:30.823Z,12.00
2019-04-29T20:12:58.320Z,12.10
2019-04-29T20:15:26.066Z,12.10
2019-04-29T20:18:12.844Z,12.00
2019-04-29T20:20:47.966Z,12.00
2019-04-29T20:23:26.252Z,12.00
2019-04-29T20:25:51.167Z,11.90
2019-04-29T20:28:21.184Z,11.90
2019-04-29T20:30:50.072Z,11.80
2019-04-29T20:33:16.123Z,11.90
2019-04-29T20:35:45.463Z,11.90
2019-04-29T20:38:10.898Z,11.80
2019-04-29T20:40:42.835Z,11.90
2019-04-29T20:43:08.266Z,11.90
2019-04-29T20:45:35.467Z,11.80
2019-04-29T20:48:02.099Z,11.90
2019-04-29T20:50:28.870Z,11.80
2019-04-29T20:53:01.956Z,11.90
2019-04-29T20:55:25.802Z,11.90
2019-04-29T20:57:54.096Z,11.90
2019-04-29T21:00:25.032Z,11.90
2019-04-29T21:02:49.339Z,11.90
2019-04-29T21:05:23.122Z,11.90
2019-04-29T21:07:44.560Z,11.80
2019-04-29T21:10:10.998Z,11.80
2019-04-29T21:12:56.150Z,11.80
2019-04-29T21:15:27.600Z,11.90
2019-04-29T21:17:58.546Z,11.90
2019-04-29T21:20:26.234Z,11.90
2019-04-29T21:25:45.798Z,11.80
2019-04-29T21:28:12.292Z,11.80
2019-04-29T21:30:42.568Z,11.80
2019-04-29T21:33:08.256Z,11.80
2019-04-29T21:35:57.805Z,11.80
2019-04-29T21:38:26.030Z,11.80
2019-04-29T21:40:57.175Z,11.80
2019-04-29T21:43:29.290Z,11.80
2019-04-29T21:45:55.738Z,11.80
2019-04-29T21:48:25.328Z,11.80
2019-04-29T21:50:50.456Z,11.70
2019-04-29T21:53:16.843Z,11.70
2019-04-29T21:55:43.345Z,11.70
2019-04-29T21:58:09.824Z,11.70
2019-04-29T22:00:37.356Z,11.70
2019-04-29T22:03:05.841Z,11.60
2019-04-29T22:05:35.002Z,11.70
2019-04-29T22:08:01.581Z,11.60
2019-04-29T22:10:29.127Z,11.60
2019-04-29T22:13:01.792Z,11.60
2019-04-29T22:15:32.184Z,11.60
2019-04-29T22:17:56.534Z,11.60
2019-04-29T22:20:22.626Z,11.60
2019-04-29T22:22:49.036Z,11.60
2019-04-29T22:25:15.731Z,11.60
2019-04-29T22:27:45.029Z,11.60
2019-04-29T22:30:16.873Z,11.70
2019-04-29T22:32:39.831Z,11.70
2019-04-29T22:35:06.755Z,11.70
2019-04-29T22:37:35.870Z,11.70
2019-04-29T22:40:04.550Z,11.70
2019-04-29T22:42:33.179Z,11.70
2019-04-29T22:45:00.752Z,11.70
2019-04-29T22:47:27.439Z,11.70
2019-04-29T22:49:58.641Z,11.70
2019-04-29T22:52:25.577Z,11.70
2019-04-29T22:54:52.844Z,11.70
2019-04-29T22:57:22.972Z,11.70
2019-04-29T22:59:49.500Z,11.60
2019-04-29T23:02:20.053Z,11.70
2019-04-29T23:04:49.070Z,11.70
2019-04-29T23:07:12.556Z,11.70
2019-04-29T23:09:41.659Z,11.60
2019-04-29T23:12:09.680Z,11.60
2019-04-29T23:14:40.278Z,11.60
2019-04-29T23:17:12.325Z,11.60
2019-04-29T23:19:39.375Z,11.60
2019-04-29T23:22:29.548Z,11.60
2019-04-29T23:24:57.975Z,11.60
2019-04-29T23:27:25.863Z,11.70
2019-04-29T23:29:53.459Z,11.70
2019-04-29T23:32:19.925Z,11.70
2019-04-29T23:34:46.217Z,11.70
2019-04-29T23:37:12.700Z,11.70
2019-04-29T23:39:39.083Z,11.70
2019-04-29T23:42:12.016Z,11.70
2019-04-29T23:44:37.871Z,11.70
2019-04-29T23:47:05.308Z,11.60
2019-04-29T23:49:30.152Z,11.70
2019-04-29T23:51:57.617Z,11.70
2019-04-29T23:54:25.451Z,11.70
2019-04-29T23:57:03.107Z,11.70
2019-04-29T23:59:31.427Z,11.70
